Terminal Aerodrome Forecast
Issued by NWS

Home | Current Version | Previous Version | Text Only | Print | Product List | Glossary On
Versions: 1 2 3 4 5 6 7 8 9 10 11 12 13 14 15 16 17 18 19
000
FTUS43 KAPX 181700
TAFMBL
TAF
KMBL 181723Z 1818/1918 33005KT P6SM SCT035
      TEMPO 1818/1820 BKN030
     FM190100 00000KT P6SM SCT035
     FM190300 00000KT P6SM BKN025
     FM190800 15003KT P6SM OVC015
     FM191500 18008G15KT P6SM SCT035
      AMD LTD TO CLD VIS AND WIND=

USA.gov is the U.S. government's official web portal to all federal, state and local government web resources and services.